Terminal Aerodrome Forecast
Issued by NWS Twin Cities, MN

Home | Current Version | Previous Version | Text Only | Print | Product List | Glossary Off
Versions: 1 2 3 4 5 6 7 8 9 10 11 12 13 14 15 16

090
FTUS43 KMPX 172320
TAFSTC
TAF
KSTC 172320Z 1800/1824 25010KT P6SM SKC
     FM181000 29006KT 6SM BR SKC
     FM181400 27005KT P6SM BKN200=

USA.gov is the U.S. government's official web portal to all federal, state and local government web resources and services.